Saturday, August 18, 2018, 1:58 PM GMT
Back to Local

CWNE, North Point, Prince Edward Island

Location: , , Canada Lat: 47.083
Local Time: 1:58 PM GMT (13:58 GMT) Lon: -64
Time Zone: GMT Elev: 49 ft

Show me the last for .
Show Coded

Time T Td Feel RH Dir Speed Gust Alt SLP Vis Weather Sky Remarks
2018-08-18 13:00 61 60 - 96 110° 6 - - 29.86 0 1-hr Precip Total: 0.14"
2018-08-18 12:00 60 58 - 95 190° 3 - - 29.89 0 1-hr Precip Total: 0.04"
2018-08-18 11:00 59 58 - 94 210° 7 - - 29.89 0 1-hr Precip Total: 0.07"
2018-08-18 10:00 60 58 - 93 210° 12 - - 29.91 0 1-hr Precip Total: 0.18"
2018-08-18 09:00 61 57 - 85 210° 7 - - 29.90 0 1-hr Precip Total: 0.01"
2018-08-18 08:00 64 56 - 75 210° 9 - - 29.89 0 None
2018-08-18 07:00 64 53 - 67 210° 12 - - 29.90 0 None
2018-08-18 06:00 64 55 - 73 210° 10 - - 29.91 0 None
2018-08-18 05:00 64 56 - 75 210° 10 - - 29.93 0 None
2018-08-18 04:00 65 57 - 73 210° 13 20 - 29.94 0 Peak wind: 19 mph (17 kts) from 200° at 56 min
2018-08-18 03:00 64 56 - 75 180° 10 - - 29.94 0 None
2018-08-18 02:00 64 56 - 73 180° 13 18 - 29.96 0 None
2018-08-18 01:00 64 56 - 74 170° 8 - - 29.97 0 None
2018-08-18 00:00 65 56 - 73 170° 6 - - 29.97 0 None
2018-08-17 23:00 68 59 - 72 160° 7 - - 29.96 0 None
2018-08-17 22:00 72 56 76 58 200° 6 - - 29.98 0 None
2018-08-17 21:00 72 59 76 62 130° 6 - - 29.98 0 None
2018-08-17 20:00 72 58 76 62 120° 8 - - 30.00 0 None
2018-08-17 19:00 71 58 76 63 130° 7 - - 30.02 0 None
2018-08-17 18:00 68 56 - 64 220° 5 - - 30.03 0 None
2018-08-17 17:00 65 57 - 74 250° 8 - - 30.04 0 None
2018-08-17 16:00 69 58 - 68 250° 8 - - 30.05 0 None
2018-08-17 15:00 67 53 - 62 10° 1 - - 30.07 0 None
2018-08-17 14:00 66 53 - 63 250° 3 - - 30.08 0 None

Support USWX by starting your Amazon purchase here.